Leo Star I — ELXC6 — position and weather

sailwx.info

Track history (hours):
 
Tides and Currents Weather Stations Pressure Air Temp Water Temp Dewpoint Dewpoint Depression Visibility Wind Speed Wind Dir Waves Ship Positions

Leo Star I

Last reported at 2014-Aug-22 17:33 UTC. Time now 2014-Aug-22 17:46 UTC.
Position N 37°17' E 009°56'.

Length 157 m; draft 6.4 m.

Type: Cargo ship. MMSI: 636015065.

Date/timePositionNaut miles runAvg speedWind from/ knotsBaromVisibWave heightAir tempDewpointWater temp
2014-Aug-22 17:33N 37°17' E 009°56'0 0.0
2014-Aug-22 16:33N 37°17' E 009°56'1 0.7
2014-Aug-22 15:33N 37°18' E 009°55'9 9.0
2014-Aug-22 14:33N 37°23' E 009°46'1313.0
2014-Aug-22 13:33N 37°23' E 009°30'1313.4
2014-Aug-22 12:33N 37°21' E 009°13'1413.7
2014-Aug-22 11:33N 37°19' E 008°56'1414.1
2014-Aug-22 10:33N 37°18' E 008°39'1414.0
2014-Aug-22 09:33N 37°18' E 008°21'15213.2
2014-Aug-21 22:04N 37°15' E 005°10'713.2
2014-Aug-21 21:31N 37°14' E 005°01'1413.1
2014-Aug-21 20:26N 37°13' E 004°43'1213.4
2014-Aug-21 19:33N 37°12' E 004°29'1413.8
2014-Aug-21 18:33N 37°11' E 004°12'1513.7
2014-Aug-21 17:27N 37°11' E 003°53'1413.8
2014-Aug-21 16:25N 37°09' E 003°35'1214.1
2014-Aug-21 15:33N 37°08' E 003°20'1414.2
2014-Aug-21 14:33N 37°05' E 003°02'1513.9
2014-Aug-21 13:27N 37°01' E 002°43'1713.0
2014-Aug-21 12:10N 36°58' E 002°23'5214.3
2014-Aug-21 08:32N 36°48' E 001°19'1414.1
2014-Aug-21 07:31N 36°47' E 001°01'1414.4
2014-Aug-21 06:32N 36°45' E 000°44'1313.8
2014-Aug-21 05:33N 36°42' E 000°27'1514.6
2014-Aug-21 04:33N 36°40' E 000°09'1915.2
2014-Aug-21 03:19N 36°37' W 000°14'1114.7
2014-Aug-21 02:33N 36°35' W 000°27'1514.6
2014-Aug-21 01:32N 36°33' W 000°46'1614.1
2014-Aug-21 00:23N 36°30' W 001°06'1214.1
2014-Aug-20 23:33N 36°28' W 001°20'1413.9
2014-Aug-20 22:33N 36°26' W 001°37'1413.9
2014-Aug-20 21:33N 36°24' W 001°54'1713.7
2014-Aug-20 20:18N 36°21' W 002°15'1013.7
2014-Aug-20 19:32N 36°20' W 002°28'13615.0
2014-Aug-20 10:29N 35°59' W 005°14'17313.4
2014-Aug-19 21:33N 36°26' W 008°46'1414.0
2014-Aug-19 20:33N 36°30' W 009°02'1413.6
2014-Aug-19 19:33N 36°34' W 009°19'1413.6
2014-Aug-19 18:33N 36°44' W 009°30'1414.0
2014-Aug-19 17:34N 36°57' W 009°37'1413.7
2014-Aug-19 16:33N 37°10' W 009°41'1413.7
2014-Aug-19 15:33N 37°24' W 009°44'1413.8
2014-Aug-19 14:33N 37°37' W 009°48'  
Track history (hours):
 
Tides and Currents Weather Stations Pressure Air Temp Water Temp Dewpoint Dewpoint Depression Visibility Wind Speed Wind Dir Waves Ship Positions

Leo Star I

Last reported at 2014-Aug-22 17:33 UTC. Time now 2014-Aug-22 17:46 UTC.
Position N 37°17' E 009°56'.

Length 157 m; draft 6.4 m.

Type: Cargo ship. MMSI: 636015065.

Date/timePositionNaut miles runAvg speedWind from/ knotsBaromVisibWave heightAir tempDewpointWater temp
2014-Aug-22 17:33N 37°17' E 009°56'0 0.0
2014-Aug-22 16:33N 37°17' E 009°56'1 0.7
2014-Aug-22 15:33N 37°18' E 009°55'9 9.0
2014-Aug-22 14:33N 37°23' E 009°46'1313.0
2014-Aug-22 13:33N 37°23' E 009°30'1313.4
2014-Aug-22 12:33N 37°21' E 009°13'1413.7
2014-Aug-22 11:33N 37°19' E 008°56'1414.1
2014-Aug-22 10:33N 37°18' E 008°39'1414.0
2014-Aug-22 09:33N 37°18' E 008°21'15213.2
2014-Aug-21 22:04N 37°15' E 005°10'713.2
2014-Aug-21 21:31N 37°14' E 005°01'1413.1
2014-Aug-21 20:26N 37°13' E 004°43'1213.4
2014-Aug-21 19:33N 37°12' E 004°29'1413.8
2014-Aug-21 18:33N 37°11' E 004°12'1513.7
2014-Aug-21 17:27N 37°11' E 003°53'1413.8
2014-Aug-21 16:25N 37°09' E 003°35'1214.1
2014-Aug-21 15:33N 37°08' E 003°20'1414.2
2014-Aug-21 14:33N 37°05' E 003°02'1513.9
2014-Aug-21 13:27N 37°01' E 002°43'1713.0
2014-Aug-21 12:10N 36°58' E 002°23'5214.3
2014-Aug-21 08:32N 36°48' E 001°19'1414.1
2014-Aug-21 07:31N 36°47' E 001°01'1414.4
2014-Aug-21 06:32N 36°45' E 000°44'1313.8
2014-Aug-21 05:33N 36°42' E 000°27'1514.6
2014-Aug-21 04:33N 36°40' E 000°09'1915.2
2014-Aug-21 03:19N 36°37' W 000°14'1114.7
2014-Aug-21 02:33N 36°35' W 000°27'1514.6
2014-Aug-21 01:32N 36°33' W 000°46'1614.1
2014-Aug-21 00:23N 36°30' W 001°06'1214.1
2014-Aug-20 23:33N 36°28' W 001°20'1413.9
2014-Aug-20 22:33N 36°26' W 001°37'1413.9
2014-Aug-20 21:33N 36°24' W 001°54'1713.7
2014-Aug-20 20:18N 36°21' W 002°15'1013.7
2014-Aug-20 19:32N 36°20' W 002°28'13615.0
2014-Aug-20 10:29N 35°59' W 005°14'17313.4
2014-Aug-19 21:33N 36°26' W 008°46'1414.0
2014-Aug-19 20:33N 36°30' W 009°02'1413.6
2014-Aug-19 19:33N 36°34' W 009°19'1413.6
2014-Aug-19 18:33N 36°44' W 009°30'1414.0
2014-Aug-19 17:34N 36°57' W 009°37'1413.7
2014-Aug-19 16:33N 37°10' W 009°41'1413.7
2014-Aug-19 15:33N 37°24' W 009°44'1413.8
2014-Aug-19 14:33N 37°37' W 009°48'  

Dump ship's entire track history